sensor_id;sensor_type;location;lat;lon;timestamp;pressure;altitude;pressure_sealevel;temperature;humidity
59170;BME280;52474;52.236;5.114;2023-12-07T00:02:20;102021.72;;;-1.48;100.00
59170;BME280;52474;52.236;5.114;2023-12-07T00:04:45;101994.16;;;-1.59;100.00
59170;BME280;52474;52.236;5.114;2023-12-07T00:07:11;102021.50;;;-1.36;100.00
59170;BME280;52474;52.236;5.114;2023-12-07T00:09:37;102036.22;;;-1.35;100.00
59170;BME280;52474;52.236;5.114;2023-12-07T00:12:03;102057.63;;;-1.21;100.00
59170;BME280;52474;52.236;5.114;2023-12-07T00:14:28;102007.94;;;-1.52;100.00
59170;BME280;52474;52.236;5.114;2023-12-07T00:16:54;102034.53;;;-1.38;100.00
59170;BME280;52474;52.236;5.114;2023-12-07T00:19:19;102052.59;;;-1.30;100.00
59170;BME280;52474;52.236;5.114;2023-12-07T00:21:45;102048.28;;;-1.31;100.00
59170;BME280;52474;52.236;5.114;2023-12-07T00:24:11;102043.06;;;-1.31;100.00
59170;BME280;52474;52.236;5.114;2023-12-07T00:26:36;102030.00;;;-1.26;100.00
59170;BME280;52474;52.236;5.114;2023-12-07T00:29:03;102023.13;;;-1.29;100.00
59170;BME280;52474;52.236;5.114;2023-12-07T00:31:29;102023.84;;;-1.21;100.00
59170;BME280;52474;52.236;5.114;2023-12-07T00:33:54;102024.66;;;-1.19;100.00
59170;BME280;52474;52.236;5.114;2023-12-07T00:36:20;102014.34;;;-1.22;100.00
59170;BME280;52474;52.236;5.114;2023-12-07T00:38:45;101990.25;;;-1.32;100.00
59170;BME280;52474;52.236;5.114;2023-12-07T00:41:11;102016.72;;;-1.10;100.00
59170;BME280;52474;52.236;5.114;2023-12-07T00:43:37;102021.22;;;-1.19;100.00
59170;BME280;52474;52.236;5.114;2023-12-07T00:46:02;102020.47;;;-1.26;100.00
59170;BME280;52474;52.236;5.114;2023-12-07T00:48:28;101997.47;;;-1.47;100.00
59170;BME280;52474;52.236;5.114;2023-12-07T00:50:54;102045.78;;;-1.37;100.00
59170;BME280;52474;52.236;5.114;2023-12-07T00:53:19;102022.50;;;-1.43;100.00
59170;BME280;52474;52.236;5.114;2023-12-07T00:55:45;102024.16;;;-1.38;100.00
59170;BME280;52474;52.236;5.114;2023-12-07T00:58:10;102033.59;;;-1.34;100.00
59170;BME280;52474;52.236;5.114;2023-12-07T01:00:36;102019.81;;;-1.39;100.00
59170;BME280;52474;52.236;5.114;2023-12-07T01:03:02;102035.34;;;-1.36;100.00
59170;BME280;52474;52.236;5.114;2023-12-07T01:05:28;101994.16;;;-1.59;100.00
59170;BME280;52474;52.236;5.114;2023-12-07T01:07:53;102036.31;;;-1.41;100.00
59170;BME280;52474;52.236;5.114;2023-12-07T01:10:19;102037.44;;;-1.56;100.00
59170;BME280;52474;52.236;5.114;2023-12-07T01:12:44;102014.31;;;-1.73;100.00
59170;BME280;52474;52.236;5.114;2023-12-07T01:15:10;102033.94;;;-1.55;100.00
59170;BME280;52474;52.236;5.114;2023-12-07T01:17:36;102021.00;;;-1.57;100.00
59170;BME280;52474;52.236;5.114;2023-12-07T01:20:01;102038.06;;;-1.43;100.00
59170;BME280;52474;52.236;5.114;2023-12-07T01:22:29;101999.44;;;-1.62;100.00
59170;BME280;52474;52.236;5.114;2023-12-07T01:24:54;102019.16;;;-1.52;100.00
59170;BME280;52474;52.236;5.114;2023-12-07T01:27:20;102035.59;;;-1.49;100.00
59170;BME280;52474;52.236;5.114;2023-12-07T01:29:46;102040.81;;;-1.51;100.00
59170;BME280;52474;52.236;5.114;2023-12-07T01:32:11;101997.88;;;-1.74;100.00
59170;BME280;52474;52.236;5.114;2023-12-07T01:34:37;102016.81;;;-1.67;100.00
59170;BME280;52474;52.236;5.114;2023-12-07T01:37:03;102008.31;;;-1.78;100.00
59170;BME280;52474;52.236;5.114;2023-12-07T01:39:28;102028.13;;;-1.69;100.00
59170;BME280;52474;52.236;5.114;2023-12-07T01:41:54;102050.41;;;-1.56;100.00
59170;BME280;52474;52.236;5.114;2023-12-07T01:44:19;102040.91;;;-1.57;100.00
59170;BME280;52474;52.236;5.114;2023-12-07T01:46:45;102042.63;;;-1.58;100.00
59170;BME280;52474;52.236;5.114;2023-12-07T01:49:11;102028.84;;;-1.61;100.00
59170;BME280;52474;52.236;5.114;2023-12-07T01:51:37;101960.28;;;-2.05;100.00
59170;BME280;52474;52.236;5.114;2023-12-07T01:54:03;102052.22;;;-1.61;100.00
59170;BME280;52474;52.236;5.114;2023-12-07T01:56:29;102042.03;;;-1.75;100.00
59170;BME280;52474;52.236;5.114;2023-12-07T01:58:55;102038.53;;;-1.71;100.00
59170;BME280;52474;52.236;5.114;2023-12-07T02:01:21;102047.09;;;-1.64;100.00
59170;BME280;52474;52.236;5.114;2023-12-07T02:03:47;102012.75;;;-1.85;100.00
59170;BME280;52474;52.236;5.114;2023-12-07T02:06:12;102020.34;;;-1.71;100.00
59170;BME280;52474;52.236;5.114;2023-12-07T02:08:39;102028.06;;;-1.66;100.00
59170;BME280;52474;52.236;5.114;2023-12-07T02:11:08;102023.97;;;-1.81;100.00
59170;BME280;52474;52.236;5.114;2023-12-07T02:13:38;102011.72;;;-1.73;100.00
59170;BME280;52474;52.236;5.114;2023-12-07T02:16:13;102048.47;;;-1.43;100.00
59170;BME280;52474;52.236;5.114;2023-12-07T02:18:52;102017.47;;;-1.54;100.00
59170;BME280;52474;52.236;5.114;2023-12-07T02:21:30;102039.69;;;-1.35;100.00
59170;BME280;52474;52.236;5.114;2023-12-07T02:23:58;101988.97;;;-1.57;100.00
59170;BME280;52474;52.236;5.114;2023-12-07T02:26:31;102045.53;;;-1.22;100.00
59170;BME280;52474;52.236;5.114;2023-12-07T02:28:57;102031.81;;;-1.30;100.00
59170;BME280;52474;52.236;5.114;2023-12-07T02:31:23;102027.41;;;-1.28;100.00
59170;BME280;52474;52.236;5.114;2023-12-07T02:33:48;102041.00;;;-1.11;100.00
59170;BME280;52474;52.236;5.114;2023-12-07T02:36:15;102014.44;;;-1.28;100.00
59170;BME280;52474;52.236;5.114;2023-12-07T02:38:44;102012.00;;;-1.37;100.00
59170;BME280;52474;52.236;5.114;2023-12-07T02:41:12;102002.38;;;-1.32;100.00
59170;BME280;52474;52.236;5.114;2023-12-07T02:43:38;102029.78;;;-1.13;100.00
59170;BME280;52474;52.236;5.114;2023-12-07T02:46:04;102034.84;;;-1.05;100.00
59170;BME280;52474;52.236;5.114;2023-12-07T02:48:29;102001.28;;;-1.19;100.00
59170;BME280;52474;52.236;5.114;2023-12-07T02:50:55;102016.72;;;-1.10;100.00
59170;BME280;52474;52.236;5.114;2023-12-07T02:53:21;101991.94;;;-1.29;100.00
59170;BME280;52474;52.236;5.114;2023-12-07T02:55:47;102031.41;;;-1.09;100.00
59170;BME280;52474;52.236;5.114;2023-12-07T02:58:12;102029.69;;;-1.08;100.00
59170;BME280;52474;52.236;5.114;2023-12-07T03:00:38;102030.41;;;-1.00;100.00
59170;BME280;52474;52.236;5.114;2023-12-07T03:03:03;102035.69;;;-1.04;100.00
59170;BME280;52474;52.236;5.114;2023-12-07T03:05:29;102021.91;;;-1.10;100.00
59170;BME280;52474;52.236;5.114;2023-12-07T03:07:55;101988.53;;;-1.33;100.00
59170;BME280;52474;52.236;5.114;2023-12-07T03:10:20;102024.72;;;-1.20;100.00
59170;BME280;52474;52.236;5.114;2023-12-07T03:12:46;101968.31;;;-1.65;100.00
59170;BME280;52474;52.236;5.114;2023-12-07T03:15:11;102033.53;;;-1.31;100.00
59170;BME280;52474;52.236;5.114;2023-12-07T03:17:39;102047.44;;;-1.33;100.00
59170;BME280;52474;52.236;5.114;2023-12-07T03:20:05;102042.34;;;-1.39;100.00
59170;BME280;52474;52.236;5.114;2023-12-07T03:22:31;102047.59;;;-1.42;100.00
59170;BME280;52474;52.236;5.114;2023-12-07T03:24:56;102047.59;;;-1.42;100.00
59170;BME280;52474;52.236;5.114;2023-12-07T03:27:22;102015.88;;;-1.63;100.00
59170;BME280;52474;52.236;5.114;2023-12-07T03:29:48;102063.13;;;-1.39;100.00
59170;BME280;52474;52.236;5.114;2023-12-07T03:32:13;101999.16;;;-1.45;100.00
59170;BME280;52474;52.236;5.114;2023-12-07T03:34:39;102048.91;;;-1.18;100.00
59170;BME280;52474;52.236;5.114;2023-12-07T03:37:05;102049.03;;;-1.24;100.00
59170;BME280;52474;52.236;5.114;2023-12-07T03:39:30;102007.81;;;-1.46;100.00
59170;BME280;52474;52.236;5.114;2023-12-07T03:41:57;102035.19;;;-1.25;100.00
59170;BME280;52474;52.236;5.114;2023-12-07T03:44:24;102056.81;;;-1.23;100.00
59170;BME280;52474;52.236;5.114;2023-12-07T03:46:52;102041.44;;;-1.37;100.00
59170;BME280;52474;52.236;5.114;2023-12-07T03:49:18;102025.22;;;-1.49;100.00
59170;BME280;52474;52.236;5.114;2023-12-07T03:51:44;102048.34;;;-1.36;100.00
59170;BME280;52474;52.236;5.114;2023-12-07T03:54:09;102036.38;;;-1.46;100.00
59170;BME280;52474;52.236;5.114;2023-12-07T03:56:35;102044.03;;;-1.37;100.00
59170;BME280;52474;52.236;5.114;2023-12-07T03:59:00;102017.34;;;-1.45;100.00
59170;BME280;52474;52.236;5.114;2023-12-07T04:01:28;102014.81;;;-1.51;100.00
59170;BME280;52474;52.236;5.114;2023-12-07T04:03:55;102052.63;;;-1.33;100.00
59170;BME280;52474;52.236;5.114;2023-12-07T04:06:22;102036.22;;;-1.35;100.00
59170;BME280;52474;52.236;5.114;2023-12-07T04:08:48;102034.38;;;-1.28;100.00
59170;BME280;52474;52.236;5.114;2023-12-07T04:11:14;102038.53;;;-1.18;100.00
59170;BME280;52474;52.236;5.114;2023-12-07T04:13:41;101995.56;;;-1.38;100.00
59170;BME280;52474;52.236;5.114;2023-12-07T04:16:07;102031.53;;;-1.13;100.00
59170;BME280;52474;52.236;5.114;2023-12-07T04:18:33;102013.50;;;-1.24;100.00
59170;BME280;52474;52.236;5.114;2023-12-07T04:20:59;102007.47;;;-1.26;100.00
59170;BME280;52474;52.236;5.114;2023-12-07T04:23:25;102029.72;;;-1.11;100.00
59170;BME280;52474;52.236;5.114;2023-12-07T04:25:50;102029.72;;;-1.10;100.00
59170;BME280;52474;52.236;5.114;2023-12-07T04:28:16;102043.63;;;-1.11;100.00
59170;BME280;52474;52.236;5.114;2023-12-07T04:30:42;102029.22;;;-1.30;100.00
59170;BME280;52474;52.236;5.114;2023-12-07T04:33:08;102009.56;;;-1.48;100.00
59170;BME280;52474;52.236;5.114;2023-12-07T04:35:34;102036.03;;;-1.24;100.00
59170;BME280;52474;52.236;5.114;2023-12-07T04:38:00;102041.13;;;-1.18;100.00
59170;BME280;52474;52.236;5.114;2023-12-07T04:40:25;102025.09;;;-1.43;100.00
59170;BME280;52474;52.236;5.114;2023-12-07T04:42:51;102021.56;;;-1.38;100.00
59170;BME280;52474;52.236;5.114;2023-12-07T04:45:17;102031.03;;;-1.35;100.00
59170;BME280;52474;52.236;5.114;2023-12-07T04:47:43;102044.75;;;-1.28;100.00
59170;BME280;52474;52.236;5.114;2023-12-07T04:50:09;102022.34;;;-1.34;100.00
59170;BME280;52474;52.236;5.114;2023-12-07T04:52:35;102018.00;;;-1.34;100.00
59170;BME280;52474;52.236;5.114;2023-12-07T04:55:01;102036.81;;;-1.18;100.00
59170;BME280;52474;52.236;5.114;2023-12-07T04:57:27;101978.38;;;-1.46;100.00
59170;BME280;52474;52.236;5.114;2023-12-07T04:59:52;101998.13;;;-1.36;100.00
59170;BME280;52474;52.236;5.114;2023-12-07T05:02:18;102035.13;;;-1.20;100.00
59170;BME280;52474;52.236;5.114;2023-12-07T05:04:45;102036.91;;;-1.24;100.00
59170;BME280;52474;52.236;5.114;2023-12-07T05:07:13;102035.06;;;-1.19;100.00
59170;BME280;52474;52.236;5.114;2023-12-07T05:09:39;101998.19;;;-1.41;100.00
59170;BME280;52474;52.236;5.114;2023-12-07T05:12:06;102029.03;;;-1.19;100.00
59170;BME280;52474;52.236;5.114;2023-12-07T05:14:32;102032.53;;;-1.20;100.00
59170;BME280;52474;52.236;5.114;2023-12-07T05:16:58;102028.25;;;-1.26;100.00
59170;BME280;52474;52.236;5.114;2023-12-07T05:19:24;102032.69;;;-1.31;100.00
59170;BME280;52474;52.236;5.114;2023-12-07T05:21:50;102010.19;;;-1.32;100.00
59170;BME280;52474;52.236;5.114;2023-12-07T05:24:17;102016.19;;;-1.28;100.00
59170;BME280;52474;52.236;5.114;2023-12-07T05:26:43;101979.63;;;-1.69;100.00
59170;BME280;52474;52.236;5.114;2023-12-07T05:29:12;102010.34;;;-1.43;100.00
59170;BME280;52474;52.236;5.114;2023-12-07T05:31:37;102015.59;;;-1.44;100.00
59170;BME280;52474;52.236;5.114;2023-12-07T05:34:03;102021.34;;;-1.27;100.00
59170;BME280;52474;52.236;5.114;2023-12-07T05:36:29;102011.81;;;-1.26;100.00
59170;BME280;52474;52.236;5.114;2023-12-07T05:38:55;101978.19;;;-1.36;100.00
59170;BME280;52474;52.236;5.114;2023-12-07T05:41:20;101977.19;;;-1.27;100.00
59170;BME280;52474;52.236;5.114;2023-12-07T05:43:46;101965.88;;;-1.24;100.00
59170;BME280;52474;52.236;5.114;2023-12-07T05:46:12;102005.25;;;-0.98;100.00
59170;BME280;52474;52.236;5.114;2023-12-07T05:48:37;102001.88;;;-1.03;100.00
59170;BME280;52474;52.236;5.114;2023-12-07T05:51:04;101994.22;;;-1.12;100.00
59170;BME280;52474;52.236;5.114;2023-12-07T05:53:29;102002.88;;;-1.10;100.00
59170;BME280;52474;52.236;5.114;2023-12-07T05:55:58;101981.59;;;-1.32;100.00
59170;BME280;52474;52.236;5.114;2023-12-07T05:58:24;101973.03;;;-1.37;100.00
59170;BME280;52474;52.236;5.114;2023-12-07T06:00:49;102011.69;;;-1.19;100.00
59170;BME280;52474;52.236;5.114;2023-12-07T06:03:15;102004.03;;;-1.28;100.00
59170;BME280;52474;52.236;5.114;2023-12-07T06:05:41;102005.69;;;-1.22;100.00
59170;BME280;52474;52.236;5.114;2023-12-07T06:08:08;102014.34;;;-1.22;100.00
59170;BME280;52474;52.236;5.114;2023-12-07T06:10:34;102016.03;;;-1.21;100.00
59170;BME280;52474;52.236;5.114;2023-12-07T06:13:01;102006.63;;;-1.26;100.00
59170;BME280;52474;52.236;5.114;2023-12-07T06:15:27;102016.78;;;-1.13;100.00
59170;BME280;52474;52.236;5.114;2023-12-07T06:17:56;102025.28;;;-1.04;100.00
59170;BME280;52474;52.236;5.114;2023-12-07T06:20:22;102033.00;;;-0.98;100.00
59170;BME280;52474;52.236;5.114;2023-12-07T06:22:48;102015.78;;;-1.05;100.00
59170;BME280;52474;52.236;5.114;2023-12-07T06:25:14;102036.31;;;-0.92;100.00
59170;BME280;52474;52.236;5.114;2023-12-07T06:27:40;102011.59;;;-1.13;100.00
59170;BME280;52474;52.236;5.114;2023-12-07T06:30:06;101989.13;;;-1.17;100.00
59170;BME280;52474;52.236;5.114;2023-12-07T06:32:32;102037.09;;;-0.87;100.00
59170;BME280;52474;52.236;5.114;2023-12-07T06:34:58;102046.63;;;-0.85;100.00
59170;BME280;52474;52.236;5.114;2023-12-07T06:37:24;102026.84;;;-0.94;100.00
59170;BME280;52474;52.236;5.114;2023-12-07T06:39:49;101982.03;;;-1.09;100.00
59170;BME280;52474;52.236;5.114;2023-12-07T06:42:15;101993.88;;;-0.94;100.00
59170;BME280;52474;52.236;5.114;2023-12-07T06:44:43;101980.94;;;-0.97;100.00
59170;BME280;52474;52.236;5.114;2023-12-07T06:47:08;102036.78;;;-0.70;100.00
59170;BME280;52474;52.236;5.114;2023-12-07T06:49:35;101996.53;;;-0.95;100.00
59170;BME280;52474;52.236;5.114;2023-12-07T06:52:01;102028.34;;;-0.82;100.00
59170;BME280;52474;52.236;5.114;2023-12-07T06:54:27;102005.88;;;-0.85;100.00
59170;BME280;52474;52.236;5.114;2023-12-07T06:56:52;101992.19;;;-0.95;100.00
59170;BME280;52474;52.236;5.114;2023-12-07T06:59:19;102016.13;;;-0.79;100.00
59170;BME280;52474;52.236;5.114;2023-12-07T07:01:45;102008.31;;;-0.79;100.00
59170;BME280;52474;52.236;5.114;2023-12-07T07:04:11;102011.81;;;-0.78;100.00
59170;BME280;52474;52.236;5.114;2023-12-07T07:06:37;102014.41;;;-0.78;100.00
59170;BME280;52474;52.236;5.114;2023-12-07T07:09:03;102016.28;;;-0.87;100.00
59170;BME280;52474;52.236;5.114;2023-12-07T07:11:30;102008.63;;;-0.94;100.00
59170;BME280;52474;52.236;5.114;2023-12-07T07:13:56;102034.53;;;-0.88;100.00
59170;BME280;52474;52.236;5.114;2023-12-07T07:16:21;102027.78;;;-0.98;100.00
59170;BME280;52474;52.236;5.114;2023-12-07T07:18:47;102014.09;;;-1.08;100.00
59170;BME280;52474;52.236;5.114;2023-12-07T07:21:13;101998.69;;;-1.19;100.00
59170;BME280;52474;52.236;5.114;2023-12-07T07:23:38;102032.13;;;-0.99;100.00
59170;BME280;52474;52.236;5.114;2023-12-07T07:26:04;102035.63;;;-1.01;100.00
59170;BME280;52474;52.236;5.114;2023-12-07T07:28:30;102014.22;;;-1.16;100.00
59170;BME280;52474;52.236;5.114;2023-12-07T07:30:56;102050.28;;;-0.96;100.00
59170;BME280;52474;52.236;5.114;2023-12-07T07:33:21;101992.84;;;-1.30;100.00
59170;BME280;52474;52.236;5.114;2023-12-07T07:35:47;102024.59;;;-1.14;100.00
59170;BME280;52474;52.236;5.114;2023-12-07T07:38:12;101995.50;;;-1.35;100.00
59170;BME280;52474;52.236;5.114;2023-12-07T07:40:39;102030.41;;;-0.98;100.00
59170;BME280;52474;52.236;5.114;2023-12-07T07:43:05;102008.84;;;-1.06;100.00
59170;BME280;52474;52.236;5.114;2023-12-07T07:45:31;102031.19;;;-0.96;100.00
59170;BME280;52474;52.236;5.114;2023-12-07T07:47:56;102023.81;;;-1.19;100.00
59170;BME280;52474;52.236;5.114;2023-12-07T07:50:22;102005.81;;;-1.30;100.00
59170;BME280;52474;52.236;5.114;2023-12-07T07:52:48;102044.53;;;-1.13;100.00
59170;BME280;52474;52.236;5.114;2023-12-07T07:55:13;102024.88;;;-1.31;100.00
59170;BME280;52474;52.236;5.114;2023-12-07T07:57:39;102038.41;;;-1.11;100.00
59170;BME280;52474;52.236;5.114;2023-12-07T08:00:06;102047.91;;;-1.10;100.00
59170;BME280;52474;52.236;5.114;2023-12-07T08:02:34;102049.38;;;-0.95;100.00
59170;BME280;52474;52.236;5.114;2023-12-07T08:05:00;102032.88;;;-0.94;100.00
59170;BME280;52474;52.236;5.114;2023-12-07T08:07:26;102038.13;;;-0.95;100.00
59170;BME280;52474;52.236;5.114;2023-12-07T08:09:51;102020.31;;;-1.18;100.00
59170;BME280;52474;52.236;5.114;2023-12-07T08:12:17;102033.22;;;-1.11;100.00
59170;BME280;52474;52.236;5.114;2023-12-07T08:14:42;102016.16;;;-1.25;100.00
59170;BME280;52474;52.236;5.114;2023-12-07T08:17:10;102026.34;;;-1.13;100.00
59170;BME280;52474;52.236;5.114;2023-12-07T08:19:36;102038.19;;;-0.98;100.00
59170;BME280;52474;52.236;5.114;2023-12-07T08:22:03;102027.13;;;-1.10;100.00
59170;BME280;52474;52.236;5.114;2023-12-07T08:24:29;102033.00;;;-1.00;100.00
59170;BME280;52474;52.236;5.114;2023-12-07T08:26:54;102056.28;;;-0.92;100.00
59170;BME280;52474;52.236;5.114;2023-12-07T08:29:20;102046.84;;;-0.98;100.00
59170;BME280;52474;52.236;5.114;2023-12-07T08:31:47;102048.47;;;-0.92;100.00
59170;BME280;52474;52.236;5.114;2023-12-07T08:34:12;102016.00;;;-1.18;100.00
59170;BME280;52474;52.236;5.114;2023-12-07T08:36:38;102031.25;;;-0.98;100.00
59170;BME280;52474;52.236;5.114;2023-12-07T08:39:04;102028.50;;;-0.90;100.00
59170;BME280;52474;52.236;5.114;2023-12-07T08:41:29;101981.72;;;-0.92;100.00
59170;BME280;52474;52.236;5.114;2023-12-07T08:43:55;102031.56;;;-0.70;100.00
59170;BME280;52474;52.236;5.114;2023-12-07T08:46:20;101986.81;;;-0.85;100.00
59170;BME280;52474;52.236;5.114;2023-12-07T08:48:46;102030.41;;;-0.55;100.00
59170;BME280;52474;52.236;5.114;2023-12-07T08:51:12;102031.31;;;-0.56;100.00
59170;BME280;52474;52.236;5.114;2023-12-07T08:53:38;101987.75;;;-0.90;100.00
59170;BME280;52474;52.236;5.114;2023-12-07T08:56:04;102024.44;;;-0.58;100.00
59170;BME280;52474;52.236;5.114;2023-12-07T08:58:30;101994.53;;;-0.81;100.00
59170;BME280;52474;52.236;5.114;2023-12-07T09:00:56;102015.28;;;-0.79;100.00
59170;BME280;52474;52.236;5.114;2023-12-07T09:03:22;101982.47;;;-0.87;100.00
59170;BME280;52474;52.236;5.114;2023-12-07T09:05:53;101977.03;;;-0.74;100.00
59170;BME280;52474;52.236;5.114;2023-12-07T09:08:19;102010.66;;;-0.65;100.00
59170;BME280;52474;52.236;5.114;2023-12-07T09:10:45;101993.47;;;-0.72;100.00
59170;BME280;52474;52.236;5.114;2023-12-07T09:13:10;101998.47;;;-0.61;100.00
59170;BME280;52474;52.236;5.114;2023-12-07T09:15:36;101993.06;;;-0.52;100.00
59170;BME280;52474;52.236;5.114;2023-12-07T09:18:03;102015.25;;;-0.34;100.00
59170;BME280;52474;52.236;5.114;2023-12-07T09:20:29;102009.28;;;-0.39;100.00
59170;BME280;52474;52.236;5.114;2023-12-07T09:22:56;101979.22;;;-0.54;100.00
59170;BME280;52474;52.236;5.114;2023-12-07T09:25:22;101970.63;;;-0.56;100.00
59170;BME280;52474;52.236;5.114;2023-12-07T09:27:48;101955.50;;;-0.81;100.00
59170;BME280;52474;52.236;5.114;2023-12-07T09:30:14;102018.13;;;-0.48;100.00
59170;BME280;52474;52.236;5.114;2023-12-07T09:32:40;102022.41;;;-0.44;100.00
59170;BME280;52474;52.236;5.114;2023-12-07T09:35:09;102028.41;;;-0.42;100.00
59170;BME280;52474;52.236;5.114;2023-12-07T09:37:45;102029.19;;;-0.37;100.00
59170;BME280;52474;52.236;5.114;2023-12-07T09:40:23;101988.84;;;-0.58;100.00
59170;BME280;52474;52.236;5.114;2023-12-07T09:42:50;102024.03;;;-0.40;100.00
59170;BME280;52474;52.236;5.114;2023-12-07T09:45:17;101963.84;;;-0.65;100.00
59170;BME280;52474;52.236;5.114;2023-12-07T09:47:51;102017.97;;;-0.39;100.00
59170;BME280;52474;52.236;5.114;2023-12-07T09:50:17;102012.88;;;-0.45;100.00
59170;BME280;52474;52.236;5.114;2023-12-07T09:52:44;102005.72;;;-0.35;100.00
59170;BME280;52474;52.236;5.114;2023-12-07T09:55:10;101998.66;;;-0.30;100.00
59170;BME280;52474;52.236;5.114;2023-12-07T09:57:39;101998.59;;;-0.27;100.00
59170;BME280;52474;52.236;5.114;2023-12-07T10:00:05;101959.03;;;-0.41;100.00
59170;BME280;52474;52.236;5.114;2023-12-07T10:02:37;101972.69;;;-0.32;100.00
59170;BME280;52474;52.236;5.114;2023-12-07T10:05:08;102004.34;;;-0.11;100.00
59170;BME280;52474;52.236;5.114;2023-12-07T10:07:43;101969.09;;;-0.26;100.00
59170;BME280;52474;52.236;5.114;2023-12-07T10:10:14;101983.34;;;-0.05;100.00
59170;BME280;52474;52.236;5.114;2023-12-07T10:12:56;101976.53;;;-0.09;100.00
59170;BME280;52474;52.236;5.114;2023-12-07T10:15:24;101970.47;;;-0.10;100.00
59170;BME280;52474;52.236;5.114;2023-12-07T10:17:55;101968.09;;;-0.20;100.00
59170;BME280;52474;52.236;5.114;2023-12-07T10:20:26;101968.94;;;-0.20;100.00
59170;BME280;52474;52.236;5.114;2023-12-07T10:25:35;101973.13;;;-0.13;100.00
59170;BME280;52474;52.236;5.114;2023-12-07T10:28:01;101938.31;;;-0.46;100.00
59170;BME280;52474;52.236;5.114;2023-12-07T10:30:29;101960.47;;;-0.30;100.00
59170;BME280;52474;52.236;5.114;2023-12-07T10:32:55;101911.53;;;-0.51;100.00
59170;BME280;52474;52.236;5.114;2023-12-07T10:35:21;101950.13;;;-0.31;100.00
59170;BME280;52474;52.236;5.114;2023-12-07T10:37:46;101958.47;;;-0.17;100.00
59170;BME280;52474;52.236;5.114;2023-12-07T10:40:13;101889.97;;;-0.58;100.00
59170;BME280;52474;52.236;5.114;2023-12-07T10:42:41;101951.53;;;-0.18;100.00
59170;BME280;52474;52.236;5.114;2023-12-07T10:45:07;101911.94;;;-0.32;100.00
59170;BME280;52474;52.236;5.114;2023-12-07T10:47:38;101928.94;;;-0.16;100.00
59170;BME280;52474;52.236;5.114;2023-12-07T10:50:06;101930.91;;;-0.26;100.00
59170;BME280;52474;52.236;5.114;2023-12-07T10:52:51;101949.75;;;-0.16;100.00
59170;BME280;52474;52.236;5.114;2023-12-07T10:55:20;101950.47;;;-0.09;100.00
59170;BME280;52474;52.236;5.114;2023-12-07T10:57:52;101950.38;;;-0.05;100.00
59170;BME280;52474;52.236;5.114;2023-12-07T11:00:19;101881.59;;;-0.32;100.00
59170;BME280;52474;52.236;5.114;2023-12-07T11:02:46;101876.22;;;-0.26;100.00
59170;BME280;52474;52.236;5.114;2023-12-07T11:05:11;101901.88;;;-0.10;100.00
59170;BME280;52474;52.236;5.114;2023-12-07T11:10:20;101907.69;;;0.03;100.00
59170;BME280;52474;52.236;5.114;2023-12-07T11:13:00;101903.34;;;0.02;100.00
59170;BME280;52474;52.236;5.114;2023-12-07T11:15:32;101909.19;;;0.11;100.00
59170;BME280;52474;52.236;5.114;2023-12-07T11:17:58;101905.06;;;0.03;100.00
59170;BME280;52474;52.236;5.114;2023-12-07T11:20:44;101888.22;;;0.16;100.00
59170;BME280;52474;52.236;5.114;2023-12-07T11:23:12;101898.78;;;0.10;100.00
59170;BME280;52474;52.236;5.114;2023-12-07T11:25:42;101875.53;;;0.04;100.00
59170;BME280;52474;52.236;5.114;2023-12-07T11:28:10;101857.28;;;0.04;100.00
59170;BME280;52474;52.236;5.114;2023-12-07T11:30:37;101862.31;;;0.10;100.00
59170;BME280;52474;52.236;5.114;2023-12-07T11:33:05;101875.00;;;0.24;100.00
59170;BME280;52474;52.236;5.114;2023-12-07T11:35:32;101867.31;;;0.19;100.00
59170;BME280;52474;52.236;5.114;2023-12-07T11:40:41;101826.50;;;-0.15;100.00
59170;BME280;52474;52.236;5.114;2023-12-07T11:43:07;101844.41;;;-0.03;100.00
59170;BME280;52474;52.236;5.114;2023-12-07T11:45:51;101886.59;;;0.12;100.00
59170;BME280;52474;52.236;5.114;2023-12-07T11:48:19;101834.19;;;-0.10;100.00
59170;BME280;52474;52.236;5.114;2023-12-07T11:51:06;101852.28;;;-0.04;100.00
59170;BME280;52474;52.236;5.114;2023-12-07T11:53:37;101865.19;;;0.01;100.00
59170;BME280;52474;52.236;5.114;2023-12-07T11:56:04;101864.16;;;0.08;100.00
59170;BME280;52474;52.236;5.114;2023-12-07T11:58:32;101857.81;;;0.16;100.00
59170;BME280;52474;52.236;5.114;2023-12-07T12:00:59;101860.03;;;0.32;100.00
59170;BME280;52474;52.236;5.114;2023-12-07T12:03:26;101838.56;;;0.22;100.00
59170;BME280;52474;52.236;5.114;2023-12-07T12:05:52;101825.53;;;0.22;100.00
59170;BME280;52474;52.236;5.114;2023-12-07T12:08:18;101832.31;;;0.29;100.00
59170;BME280;52474;52.236;5.114;2023-12-07T12:10:45;101823.50;;;0.35;100.00
59170;BME280;52474;52.236;5.114;2023-12-07T12:13:11;101823.53;;;0.33;100.00
59170;BME280;52474;52.236;5.114;2023-12-07T12:15:41;101808.19;;;0.23;100.00
59170;BME280;52474;52.236;5.114;2023-12-07T12:18:07;101790.00;;;0.19;100.00
59170;BME280;52474;52.236;5.114;2023-12-07T12:20:33;101802.88;;;0.26;100.00
59170;BME280;52474;52.236;5.114;2023-12-07T12:22:59;101806.94;;;0.36;100.00
59170;BME280;52474;52.236;5.114;2023-12-07T12:25:29;101812.06;;;0.39;100.00
59170;BME280;52474;52.236;5.114;2023-12-07T12:28:02;101807.91;;;0.32;100.00
59170;BME280;52474;52.236;5.114;2023-12-07T12:30:29;101802.09;;;0.22;100.00
59170;BME280;52474;52.236;5.114;2023-12-07T12:32:55;101794.94;;;0.30;100.00
59170;BME280;52474;52.236;5.114;2023-12-07T12:35:21;101793.91;;;0.36;100.00
59170;BME280;52474;52.236;5.114;2023-12-07T12:37:48;101782.22;;;0.51;100.00
59170;BME280;52474;52.236;5.114;2023-12-07T12:40:18;101777.72;;;0.56;100.00
59170;BME280;52474;52.236;5.114;2023-12-07T12:42:49;101764.16;;;0.45;100.00
59170;BME280;52474;52.236;5.114;2023-12-07T12:45:17;101773.53;;;0.50;100.00
59170;BME280;52474;52.236;5.114;2023-12-07T12:47:47;101751.84;;;0.50;100.00